Página principal
Imagens de satélite Previsões 10 diasClimaMeteorologia maritima Ciclones Descargas eléctricas AeroportosFAQ Notícias Sobre
Tempo : Europa África América do Norte América do Sul Ásia Austrália-Oceania Outros
Línguas Contacto

Cambridge, Inglaterra

latitude: 52-12N, longitude: 000-11E, altura: 15 m


METAR: EGSC 301750Z 24006KT 200V270 CAVOK 15/03 Q1013
TAF: EGSC 301400Z 3015/3019 23009KT 9999 SCT045

Hora: 19:15 (18:15 UTC)

Observação actual do tempo

O boletim foi feito há 25 minutos, às 17:50 UTC
Vento 6 kt de oes-sudoeste, variando entre su-sudoeste e oeste
Temperatura 15°C
Humidade 44%
Pressão 1013 hPa
Visibilidade 10 km ou mais
sem nuvens abaixo de 1500 metros e sem cumulonimbus

Mudar unidades

Previsão

O boletim foi feito há 4 horas e 15 minutos, às 14:00 UTC
Previsão válida de 30 às 15 UTC a 30 às 19 UTC
Vento 9 kt de sudoeste
Visibilidade 10 km ou mais
Nuvens dispersasa uma altura de 4500 ft
As informações contidas neste sítio estão sujeitas a uma declaração de exoneração de responsabilidade
Tempo : Europa África América do Norte América do Sul Ásia Austrália-Oceania Outros
Imagens de satélite Previsões 10 diasClimaMeteorologia maritima Ciclones Descargas eléctricas AeroportosFAQ Línguas Contacto Notícias Sobre